Time;durP1;ratioP1;P1;durP2;ratioP2;P2;SDS_P1;SDS_P2;PMS_P1;PMS_P2;Temp;Humidity;BMP_temperature;BMP_pressure;BME280_temperature;BME280_humidity;BME280_pressure;Samples;Min_cycle;Max_cycle;Signal;HPM_P1;HPM_P2
2022/12/23 00:02:44;;;;;;;4.90;2.00;;;9.10;99.90;;;;;;21001599;28;20039;-77
2022/12/23 00:23:04;;;;;;;1.30;0.60;;;9.10;99.90;;;;;;20981514;28;20352;-78
2022/12/23 00:33:05;;;;;;;2.00;0.70;;;9.10;99.90;;;;;;21002271;28;20032;-78
2022/12/23 00:43:06;;;;;;;0.53;0.50;;;9.10;99.90;;;;;;20999518;28;20107;-78
2022/12/23 00:53:06;;;;;;;4.90;1.23;;;9.10;99.90;;;;;;20998454;28;20093;-77
2022/12/23 01:13:31;;;;;;;15.20;8.63;;;9.10;99.90;;;;;;20994943;28;20036;-78
2022/12/23 01:23:34;;;;;;;7.65;4.80;;;9.20;99.90;;;;;;20978217;28;20032;-78
2022/12/23 01:33:35;;;;;;;5.55;0.93;;;9.20;99.90;;;;;;20994605;28;20032;-78
2022/12/23 01:43:48;;;;;;;0.23;0.23;;;9.30;99.90;;;;;;20993200;28;20398;-78
2022/12/23 01:53:58;;;;;;;14.93;4.45;;;9.40;99.90;;;;;;20992922;28;20036;-77
2022/12/23 02:04:03;;;;;;;6.20;1.55;;;9.40;99.90;;;;;;21064431;28;20036;-78
2022/12/23 02:24:45;;;;;;;1.38;0.77;;;9.20;99.90;;;;;;20990775;28;20455;-77
2022/12/23 02:34:46;;;;;;;1.27;0.80;;;9.90;99.90;;;;;;20990973;28;20093;-78
2022/12/23 02:44:57;;;;;;;1.03;0.70;;;10.50;99.90;;;;;;20990475;28;20032;-78
2022/12/23 02:55:05;;;;;;;2.20;0.50;;;10.40;99.90;;;;;;20997125;28;20086;-78
2022/12/23 03:05:24;;;;;;;0.28;0.28;;;11.10;99.90;;;;;;20995731;28;20036;-78
2022/12/23 03:15:39;;;;;;;4.78;0.70;;;11.40;99.90;;;;;;21009885;28;20036;-78
2022/12/23 03:25:55;;;;;;;0.98;0.30;;;11.10;99.90;;;;;;21003056;28;20028;-79
2022/12/23 03:36:01;;;;;;;0.40;0.32;;;11.40;99.90;;;;;;21014663;28;20388;-79
2022/12/23 03:46:09;;;;;;;0.30;0.10;;;11.60;99.90;;;;;;21036319;22;20190;-81
2022/12/23 03:56:15;;;;;;;0.30;0.30;;;11.60;99.90;;;;;;20949247;28;20076;-79
2022/12/23 04:06:18;;;;;;;1.48;1.25;;;11.30;99.90;;;;;;20935717;28;20029;-79
2022/12/23 04:16:19;;;;;;;1.10;1.00;;;11.70;99.90;;;;;;20971532;28;20098;-80
2022/12/23 04:26:20;;;;;;;1.93;0.60;;;11.90;99.90;;;;;;21017594;28;20032;-78
2022/12/23 04:36:20;;;;;;;0.40;0.20;;;12.00;99.90;;;;;;20991603;28;20056;-78
2022/12/23 04:46:21;;;;;;;0.10;0.10;;;12.10;99.90;;;;;;20965684;28;20056;-80
2022/12/23 04:56:22;;;;;;;0.20;0.20;;;12.30;99.90;;;;;;21039988;28;20143;-83
2022/12/23 05:06:23;;;;;;;17.27;5.43;;;12.30;99.90;;;;;;21028267;28;20028;-82
2022/12/23 05:16:24;;;;;;;2.77;0.60;;;12.30;99.90;;;;;;21044337;28;20123;-82
2022/12/23 05:26:25;;;;;;;0.10;0.10;;;12.40;99.90;;;;;;21027091;28;20406;-82
2022/12/23 05:36:25;;;;;;;12.67;5.93;;;12.40;99.90;;;;;;21043118;28;20043;-80
2022/12/23 05:46:26;;;;;;;2.23;0.30;;;12.50;99.90;;;;;;21037228;28;20032;-82
2022/12/23 05:56:27;;;;;;;0.10;0.10;;;12.50;99.90;;;;;;21013993;28;20038;-82
2022/12/23 06:06:28;;;;;;;0.50;0.20;;;12.50;99.90;;;;;;21039218;28;20067;-83
2022/12/23 06:16:29;;;;;;;0.23;0.20;;;12.60;99.90;;;;;;21019178;28;20462;-83
2022/12/23 06:26:29;;;;;;;0.20;0.20;;;12.60;99.90;;;;;;20939637;28;20029;-83
2022/12/23 06:36:30;;;;;;;5.60;1.70;;;12.30;99.90;;;;;;20964611;28;20067;-81
2022/12/23 06:46:31;;;;;;;1.43;0.30;;;12.10;99.90;;;;;;21017216;28;20371;-83
2022/12/23 06:56:32;;;;;;;3.00;0.53;;;12.10;99.90;;;;;;21029404;28;20398;-81
2022/12/23 07:06:33;;;;;;;;;;;11.80;99.90;;;;;;21040925;28;20029;-84
2022/12/23 07:16:34;;;;;;;8.77;2.22;;;11.70;99.90;;;;;;21019743;28;19908;-80
2022/12/23 07:26:35;;;;;;;14.43;4.33;;;11.60;99.90;;;;;;20988448;28;20033;-78
2022/12/23 07:36:35;;;;;;;6.57;2.73;;;11.50;99.90;;;;;;20946573;28;20040;-79
2022/12/23 07:46:37;;;;;;;4.73;1.67;;;11.40;99.90;;;;;;21002810;28;20435;-77
2022/12/23 07:56:38;;;;;;;;;;;11.30;99.90;;;;;;21106220;28;20036;-80
2022/12/23 08:06:40;;;;;;;4.38;1.50;;;11.20;99.90;;;;;;21104409;28;19918;-80
2022/12/23 08:16:40;;;;;;;2.15;1.02;;;11.30;99.90;;;;;;21080925;28;20044;-80
2022/12/23 08:26:41;;;;;;;2.43;1.47;;;11.40;99.90;;;;;;21017502;28;20040;-81
2022/12/23 08:36:42;;;;;;;2.80;1.80;;;11.50;99.90;;;;;;21039260;28;20040;-79
2022/12/23 08:46:43;;;;;;;3.40;1.70;;;11.50;99.90;;;;;;21044704;28;20063;-81
2022/12/23 08:56:44;;;;;;;5.20;3.33;;;11.60;99.90;;;;;;21039462;28;20025;-80
2022/12/23 09:06:45;;;;;;;3.03;2.00;;;11.60;99.90;;;;;;21054268;28;20032;-80
2022/12/23 09:16:48;;;;;;;3.10;2.10;;;11.80;99.90;;;;;;21054928;28;20139;-79
2022/12/23 09:26:49;;;;;;;3.00;2.28;;;11.80;99.90;;;;;;21034705;28;20039;-80
2022/12/23 09:36:50;;;;;;;4.30;2.27;;;11.90;99.90;;;;;;21058590;28;20032;-81
2022/12/23 09:46:54;;;;;;;3.17;2.03;;;11.90;99.90;;;;;;21033967;22;20038;-80
2022/12/23 09:57:23;;;;;;;3.75;2.20;;;12.00;99.90;;;;;;20862196;22;20030;-79
2022/12/23 10:07:30;;;;;;;10.68;3.28;;;12.00;99.90;;;;;;21092032;28;20041;-80
2022/12/23 10:17:37;;;;;;;4.03;2.55;;;11.90;99.90;;;;;;21067562;28;20032;-80
2022/12/23 10:27:40;;;;;;;3.67;1.58;;;11.90;99.90;;;;;;21060375;28;20028;-78
2022/12/23 10:38:11;;;;;;;2.10;1.50;;;12.00;99.90;;;;;;21056294;28;20025;-79
2022/12/23 10:48:44;;;;;;;1.58;0.93;;;12.00;99.90;;;;;;21060034;28;20115;-79
2022/12/23 10:58:51;;;;;;;2.00;1.10;;;12.00;99.90;;;;;;21019162;28;20048;-79
2022/12/23 11:08:53;;;;;;;1.70;0.70;;;12.00;99.90;;;;;;21072777;28;20025;-80
2022/12/23 11:19:04;;;;;;;4.18;3.05;;;11.90;99.90;;;;;;21045042;28;20486;-81
2022/12/23 11:29:09;;;;;;;35.00;6.90;;;12.00;99.90;;;;;;21055020;28;20510;-79
2022/12/23 11:39:13;;;;;;;7.07;3.38;;;11.90;99.90;;;;;;21056141;28;20040;-78
2022/12/23 11:49:30;;;;;;;9.05;4.80;;;11.80;99.90;;;;;;21020444;28;20032;-77
2022/12/23 11:59:42;;;;;;;14.68;6.88;;;11.80;99.90;;;;;;21025226;28;20035;-77
2022/12/23 12:09:44;;;;;;;12.75;6.03;;;11.80;99.90;;;;;;21051154;28;20100;-81
2022/12/23 12:20:35;;;;;;;6.38;3.95;;;11.80;99.90;;;;;;21049563;28;20033;-80
2022/12/23 12:30:40;;;;;;;6.15;4.32;;;11.80;99.90;;;;;;20935978;28;20051;-80
2022/12/23 12:40:58;;;;;;;9.07;5.00;;;11.80;99.90;;;;;;21047718;28;20036;-79
2022/12/23 12:51:08;;;;;;;8.40;4.32;;;11.80;99.90;;;;;;21025524;28;20095;-79
2022/12/23 13:01:27;;;;;;;8.38;3.42;;;11.80;99.90;;;;;;21017538;28;20036;-80
2022/12/23 13:11:45;;;;;;;12.70;4.65;;;11.80;99.90;;;;;;21026009;28;20450;-81
2022/12/23 13:22:04;;;;;;;14.60;10.02;;;11.80;99.90;;;;;;21047109;28;20040;-78
2022/12/23 13:32:20;;;;;;;6.60;3.65;;;11.70;99.90;;;;;;21024479;28;20035;-78
2022/12/23 13:42:28;;;;;;;7.53;3.78;;;11.80;99.90;;;;;;21061237;28;20037;-78
2022/12/23 13:52:32;;;;;;;8.90;4.97;;;11.80;99.90;;;;;;21054973;28;20025;-78
2022/12/23 14:02:36;;;;;;;2.22;1.52;;;11.90;99.90;;;;;;21049610;28;20096;-78
2022/12/23 14:12:39;;;;;;;2.35;1.38;;;12.00;99.90;;;;;;21048454;28;20087;-79
2022/12/23 14:23:16;;;;;;;2.60;0.85;;;12.00;99.90;;;;;;21049987;28;20025;-79
2022/12/23 14:33:32;;;;;;;2.22;1.45;;;12.20;99.90;;;;;;21024512;28;20024;-80
2022/12/23 14:43:45;;;;;;;8.95;3.70;;;12.20;99.90;;;;;;21050168;28;20060;-79
2022/12/23 14:53:55;;;;;;;3.80;2.47;;;12.00;99.90;;;;;;21034466;28;20024;-81
2022/12/23 15:03:57;;;;;;;16.63;6.15;;;11.90;99.90;;;;;;21012309;28;20035;-80
2022/12/23 15:14:14;;;;;;;10.82;4.70;;;12.20;99.90;;;;;;20997228;28;20079;-80
2022/12/23 15:24:20;;;;;;;6.55;2.00;;;12.40;99.90;;;;;;21012043;28;20038;-78
2022/12/23 15:34:32;;;;;;;9.85;3.67;;;12.60;99.90;;;;;;21029013;28;20039;-80
2022/12/23 15:44:38;;;;;;;3.10;1.85;;;12.50;99.90;;;;;;21048714;28;20028;-81
2022/12/23 15:54:52;;;;;;;12.32;6.05;;;12.60;99.90;;;;;;20983558;22;20450;-79
2022/12/23 16:04:55;;;;;;;4.15;2.33;;;12.70;99.90;;;;;;20984631;28;20073;-78
2022/12/23 16:14:59;;;;;;;2.72;1.50;;;12.50;99.90;;;;;;21001005;28;20036;-78
2022/12/23 16:25:15;;;;;;;5.63;1.90;;;12.50;99.90;;;;;;21006868;28;20497;-79
2022/12/23 16:35:42;;;;;;;3.05;1.80;;;12.40;99.90;;;;;;20930950;28;20044;-79
2022/12/23 16:45:45;;;;;;;2.58;0.50;;;12.30;99.90;;;;;;20895758;28;20041;-79
2022/12/23 16:55:45;;;;;;;3.58;1.45;;;12.40;99.90;;;;;;20914767;28;20061;-79
2022/12/23 17:05:47;;;;;;;3.43;1.10;;;12.50;99.90;;;;;;20992178;28;20020;-78
2022/12/23 17:15:48;;;;;;;1.40;0.90;;;12.40;99.90;;;;;;20997039;28;20029;-79
2022/12/23 17:25:49;;;;;;;15.15;10.32;;;12.30;99.90;;;;;;20982400;28;20032;-81
2022/12/23 17:35:54;;;;;;;1.15;0.43;;;12.40;99.90;;;;;;20958040;28;20478;-77
2022/12/23 17:45:55;;;;;;;0.77;0.57;;;12.60;99.90;;;;;;20899921;28;20033;-79
2022/12/23 17:55:56;;;;;;;1.03;0.70;;;12.80;99.90;;;;;;20918728;28;20039;-80
2022/12/23 18:05:57;;;;;;;0.80;0.53;;;12.90;99.90;;;;;;20974103;28;20032;-81
2022/12/23 18:15:57;;;;;;;6.77;1.37;;;13.10;99.90;;;;;;21000820;28;20455;-80
2022/12/23 18:25:59;;;;;;;0.53;0.30;;;13.10;99.90;;;;;;21000298;28;20040;-80
2022/12/23 18:36:00;;;;;;;0.30;0.20;;;13.20;99.90;;;;;;21000653;28;20031;-80
2022/12/23 18:46:01;;;;;;;1.30;0.57;;;13.40;99.90;;;;;;20999578;28;20025;-80
2022/12/23 18:56:01;;;;;;;0.83;0.40;;;13.60;99.90;;;;;;20983606;28;20021;-80
2022/12/23 19:06:05;;;;;;;0.80;0.50;;;13.70;99.90;;;;;;21010012;28;20032;-79
2022/12/23 19:16:06;;;;;;;1.33;0.35;;;13.70;99.90;;;;;;20995530;28;20123;-80
2022/12/23 19:26:09;;;;;;;1.60;0.30;;;13.70;99.90;;;;;;21012585;28;20403;-80
2022/12/23 19:36:18;;;;;;;0.88;0.60;;;13.60;99.90;;;;;;21010712;28;20037;-80
2022/12/23 19:46:19;;;;;;;1.20;0.60;;;13.60;99.90;;;;;;21055865;28;20645;-80
2022/12/23 19:56:20;;;;;;;3.23;1.70;;;13.60;99.90;;;;;;21091755;28;20027;-79
2022/12/23 20:06:22;;;;;;;10.47;4.23;;;13.70;99.90;;;;;;20996930;28;20089;-78
2022/12/23 20:16:24;;;;;;;10.82;4.97;;;13.70;99.90;;;;;;21004973;28;20036;-77
2022/12/23 20:26:26;;;;;;;1.73;0.90;;;13.70;99.90;;;;;;20999654;28;20033;-78
2022/12/23 20:36:30;;;;;;;8.85;3.42;;;13.80;99.90;;;;;;20980622;28;20037;-78
2022/12/23 20:46:30;;;;;;;7.15;3.80;;;13.70;99.90;;;;;;21056097;28;20032;-79
2022/12/23 20:56:31;;;;;;;10.90;5.17;;;13.60;99.90;;;;;;21083579;28;20039;-79
2022/12/23 21:06:33;;;;;;;2.67;1.60;;;13.60;99.90;;;;;;21003390;28;20043;-79
2022/12/23 21:16:35;;;;;;;1.95;1.15;;;13.60;99.90;;;;;;20995414;28;20040;-80
2022/12/23 21:26:37;;;;;;;8.20;1.23;;;13.50;99.90;;;;;;20983434;28;20558;-78
2022/12/23 21:36:38;;;;;;;1.57;0.73;;;13.30;99.90;;;;;;20918680;28;20025;-78
2022/12/23 21:46:38;;;;;;;1.00;0.50;;;13.20;99.90;;;;;;20948112;22;20670;-81
2022/12/23 21:56:40;;;;;;;5.20;2.37;;;13.00;99.90;;;;;;21082344;28;20181;-81
2022/12/23 22:06:44;;;;;;;;;;;12.90;99.90;;;;;;21071363;28;20028;-79
2022/12/23 22:16:47;;;;;;;3.05;1.10;;;12.80;99.90;;;;;;21082763;28;19933;-79
2022/12/23 22:26:48;;;;;;;3.35;0.70;;;12.70;99.90;;;;;;21104478;28;20028;-83
2022/12/23 22:36:49;;;;;;;4.47;0.70;;;12.60;99.90;;;;;;21079034;28;20117;-81
2022/12/23 22:46:50;;;;;;;0.73;0.40;;;12.50;99.90;;;;;;21050301;28;20043;-81
2022/12/23 22:56:51;;;;;;;4.13;0.60;;;12.40;99.90;;;;;;21069730;28;20028;-80
2022/12/23 23:06:51;;;;;;;3.53;1.00;;;12.40;99.90;;;;;;21137800;28;20040;-80
2022/12/23 23:16:52;;;;;;;2.50;0.70;;;12.20;99.90;;;;;;21139483;28;20036;-83
2022/12/23 23:26:53;;;;;;;4.73;0.67;;;12.10;99.90;;;;;;21150607;28;20420;-79
2022/12/23 23:36:54;;;;;;;2.10;1.00;;;12.10;99.90;;;;;;21133764;28;20020;-80
2022/12/23 23:46:54;;;;;;;2.50;0.93;;;12.00;99.90;;;;;;21146287;28;20028;-81
2022/12/23 23:56:55;;;;;;;7.07;1.00;;;12.10;99.90;;;;;;21099208;28;20028;-80
